sensor_id;sensor_type;location;lat;lon;timestamp;P1;durP1;ratioP1;P2;durP2;ratioP2
31073;SDS011;17730;53.552;9.940;2022-12-18T00:01:26;37.63;;;14.93;;
31073;SDS011;17730;53.552;9.940;2022-12-18T00:03:54;38.67;;;14.68;;
31073;SDS011;17730;53.552;9.940;2022-12-18T00:06:20;34.55;;;15.65;;
31073;SDS011;17730;53.552;9.940;2022-12-18T00:08:46;33.10;;;14.35;;
31073;SDS011;17730;53.552;9.940;2022-12-18T00:11:13;32.47;;;15.40;;
31073;SDS011;17730;53.552;9.940;2022-12-18T00:13:40;33.50;;;13.70;;
31073;SDS011;17730;53.552;9.940;2022-12-18T00:16:07;28.80;;;13.75;;
31073;SDS011;17730;53.552;9.940;2022-12-18T00:18:35;30.85;;;14.23;;
31073;SDS011;17730;53.552;9.940;2022-12-18T00:21:02;26.33;;;13.02;;
31073;SDS011;17730;53.552;9.940;2022-12-18T00:23:30;33.25;;;13.95;;
31073;SDS011;17730;53.552;9.940;2022-12-18T00:25:59;30.27;;;14.00;;
31073;SDS011;17730;53.552;9.940;2022-12-18T00:28:26;33.13;;;14.75;;
31073;SDS011;17730;53.552;9.940;2022-12-18T00:30:59;39.45;;;14.75;;
31073;SDS011;17730;53.552;9.940;2022-12-18T00:33:28;30.88;;;13.60;;
31073;SDS011;17730;53.552;9.940;2022-12-18T00:35:54;35.63;;;14.88;;
31073;SDS011;17730;53.552;9.940;2022-12-18T00:38:24;27.05;;;13.40;;
31073;SDS011;17730;53.552;9.940;2022-12-18T00:40:50;50.40;;;14.88;;
31073;SDS011;17730;53.552;9.940;2022-12-18T00:43:15;30.63;;;14.30;;
31073;SDS011;17730;53.552;9.940;2022-12-18T00:45:41;34.92;;;14.43;;
31073;SDS011;17730;53.552;9.940;2022-12-18T00:48:07;28.63;;;13.63;;
31073;SDS011;17730;53.552;9.940;2022-12-18T00:50:32;30.60;;;13.88;;
31073;SDS011;17730;53.552;9.940;2022-12-18T00:52:58;29.58;;;14.00;;
31073;SDS011;17730;53.552;9.940;2022-12-18T00:55:23;30.98;;;13.65;;
31073;SDS011;17730;53.552;9.940;2022-12-18T00:57:50;28.60;;;14.10;;
31073;SDS011;17730;53.552;9.940;2022-12-18T01:00:17;34.97;;;14.75;;
31073;SDS011;17730;53.552;9.940;2022-12-18T01:02:43;30.52;;;13.73;;
31073;SDS011;17730;53.552;9.940;2022-12-18T01:05:10;27.23;;;13.40;;
31073;SDS011;17730;53.552;9.940;2022-12-18T01:07:36;30.30;;;13.93;;
31073;SDS011;17730;53.552;9.940;2022-12-18T01:10:03;32.05;;;13.85;;
31073;SDS011;17730;53.552;9.940;2022-12-18T01:12:30;34.50;;;14.00;;
31073;SDS011;17730;53.552;9.940;2022-12-18T01:14:55;37.22;;;14.57;;
31073;SDS011;17730;53.552;9.940;2022-12-18T01:17:21;35.58;;;13.80;;
31073;SDS011;17730;53.552;9.940;2022-12-18T01:19:47;31.13;;;14.05;;
31073;SDS011;17730;53.552;9.940;2022-12-18T01:22:13;29.95;;;13.38;;
31073;SDS011;17730;53.552;9.940;2022-12-18T01:24:38;31.60;;;14.85;;
31073;SDS011;17730;53.552;9.940;2022-12-18T01:27:04;31.35;;;13.95;;
31073;SDS011;17730;53.552;9.940;2022-12-18T01:29:30;30.02;;;13.38;;
31073;SDS011;17730;53.552;9.940;2022-12-18T01:31:56;31.35;;;13.43;;
31073;SDS011;17730;53.552;9.940;2022-12-18T01:34:22;34.67;;;13.13;;
31073;SDS011;17730;53.552;9.940;2022-12-18T01:36:48;28.10;;;13.27;;
31073;SDS011;17730;53.552;9.940;2022-12-18T01:39:17;38.90;;;13.60;;
31073;SDS011;17730;53.552;9.940;2022-12-18T01:41:43;28.67;;;13.20;;
31073;SDS011;17730;53.552;9.940;2022-12-18T01:50:34;31.80;;;12.30;;
31073;SDS011;17730;53.552;9.940;2022-12-18T01:53:06;31.33;;;12.25;;
31073;SDS011;17730;53.552;9.940;2022-12-18T01:55:45;32.47;;;12.82;;
31073;SDS011;17730;53.552;9.940;2022-12-18T01:58:15;32.00;;;13.70;;
31073;SDS011;17730;53.552;9.940;2022-12-18T02:00:41;30.05;;;12.23;;
31073;SDS011;17730;53.552;9.940;2022-12-18T02:03:07;36.58;;;13.82;;
31073;SDS011;17730;53.552;9.940;2022-12-18T02:13:27;32.47;;;12.57;;
31073;SDS011;17730;53.552;9.940;2022-12-18T02:16:00;26.42;;;11.85;;
31073;SDS011;17730;53.552;9.940;2022-12-18T02:18:47;29.08;;;12.48;;
31073;SDS011;17730;53.552;9.940;2022-12-18T02:26:53;27.48;;;11.38;;
31073;SDS011;17730;53.552;9.940;2022-12-18T02:29:28;28.77;;;12.02;;
31073;SDS011;17730;53.552;9.940;2022-12-18T02:31:57;33.85;;;13.85;;
31073;SDS011;17730;53.552;9.940;2022-12-18T02:34:26;30.80;;;12.98;;
31073;SDS011;17730;53.552;9.940;2022-12-18T02:36:56;33.40;;;12.10;;
31073;SDS011;17730;53.552;9.940;2022-12-18T02:39:23;28.45;;;12.38;;
31073;SDS011;17730;53.552;9.940;2022-12-18T02:41:51;26.48;;;12.50;;
31073;SDS011;17730;53.552;9.940;2022-12-18T02:44:17;28.25;;;13.10;;
31073;SDS011;17730;53.552;9.940;2022-12-18T02:46:46;28.65;;;12.70;;
31073;SDS011;17730;53.552;9.940;2022-12-18T02:52:31;23.70;;;11.93;;
31073;SDS011;17730;53.552;9.940;2022-12-18T03:00:37;27.92;;;12.30;;
31073;SDS011;17730;53.552;9.940;2022-12-18T03:09:24;30.98;;;11.95;;
31073;SDS011;17730;53.552;9.940;2022-12-18T03:12:07;29.50;;;12.27;;
31073;SDS011;17730;53.552;9.940;2022-12-18T03:15:03;23.55;;;11.00;;
31073;SDS011;17730;53.552;9.940;2022-12-18T03:17:34;22.88;;;11.07;;
31073;SDS011;17730;53.552;9.940;2022-12-18T03:20:08;27.77;;;11.50;;
31073;SDS011;17730;53.552;9.940;2022-12-18T03:22:39;31.70;;;12.35;;
31073;SDS011;17730;53.552;9.940;2022-12-18T03:25:09;29.25;;;11.63;;
31073;SDS011;17730;53.552;9.940;2022-12-18T03:27:38;28.92;;;11.35;;
31073;SDS011;17730;53.552;9.940;2022-12-18T03:30:09;29.92;;;12.70;;
31073;SDS011;17730;53.552;9.940;2022-12-18T03:35:34;24.08;;;10.70;;
31073;SDS011;17730;53.552;9.940;2022-12-18T03:38:04;28.55;;;11.05;;
31073;SDS011;17730;53.552;9.940;2022-12-18T03:40:32;21.77;;;9.70;;
31073;SDS011;17730;53.552;9.940;2022-12-18T03:43:10;24.42;;;10.77;;
31073;SDS011;17730;53.552;9.940;2022-12-18T03:45:55;25.13;;;10.63;;
31073;SDS011;17730;53.552;9.940;2022-12-18T03:48:30;23.52;;;11.75;;
31073;SDS011;17730;53.552;9.940;2022-12-18T03:51:07;28.48;;;11.80;;
31073;SDS011;17730;53.552;9.940;2022-12-18T03:53:53;24.55;;;10.32;;
31073;SDS011;17730;53.552;9.940;2022-12-18T03:56:24;25.30;;;9.90;;
31073;SDS011;17730;53.552;9.940;2022-12-18T03:58:53;25.90;;;11.18;;
31073;SDS011;17730;53.552;9.940;2022-12-18T04:01:22;27.33;;;11.98;;
31073;SDS011;17730;53.552;9.940;2022-12-18T04:03:55;25.70;;;11.15;;
31073;SDS011;17730;53.552;9.940;2022-12-18T04:06:24;26.67;;;11.68;;
31073;SDS011;17730;53.552;9.940;2022-12-18T04:08:51;29.20;;;11.70;;
31073;SDS011;17730;53.552;9.940;2022-12-18T04:11:17;31.25;;;11.07;;
31073;SDS011;17730;53.552;9.940;2022-12-18T04:13:43;27.58;;;11.80;;
31073;SDS011;17730;53.552;9.940;2022-12-18T04:16:08;28.92;;;11.55;;
31073;SDS011;17730;53.552;9.940;2022-12-18T04:18:34;24.45;;;10.63;;
31073;SDS011;17730;53.552;9.940;2022-12-18T04:21:01;26.05;;;10.80;;
31073;SDS011;17730;53.552;9.940;2022-12-18T04:23:27;25.60;;;10.95;;
31073;SDS011;17730;53.552;9.940;2022-12-18T04:25:53;26.00;;;11.52;;
31073;SDS011;17730;53.552;9.940;2022-12-18T04:28:19;28.52;;;11.07;;
31073;SDS011;17730;53.552;9.940;2022-12-18T04:30:44;23.48;;;11.02;;
31073;SDS011;17730;53.552;9.940;2022-12-18T04:33:11;22.65;;;10.48;;
31073;SDS011;17730;53.552;9.940;2022-12-18T04:35:38;22.35;;;10.93;;
31073;SDS011;17730;53.552;9.940;2022-12-18T04:38:05;31.17;;;12.15;;
31073;SDS011;17730;53.552;9.940;2022-12-18T04:40:35;25.40;;;12.30;;
31073;SDS011;17730;53.552;9.940;2022-12-18T04:43:01;32.63;;;11.45;;
31073;SDS011;17730;53.552;9.940;2022-12-18T04:45:27;27.33;;;11.10;;
31073;SDS011;17730;53.552;9.940;2022-12-18T04:47:53;30.60;;;12.10;;
31073;SDS011;17730;53.552;9.940;2022-12-18T04:50:18;21.02;;;10.88;;
31073;SDS011;17730;53.552;9.940;2022-12-18T04:52:44;23.25;;;10.77;;
31073;SDS011;17730;53.552;9.940;2022-12-18T04:55:09;25.67;;;10.18;;
31073;SDS011;17730;53.552;9.940;2022-12-18T04:57:35;28.00;;;10.07;;
31073;SDS011;17730;53.552;9.940;2022-12-18T05:00:01;25.63;;;10.30;;
31073;SDS011;17730;53.552;9.940;2022-12-18T05:02:27;23.80;;;10.18;;
31073;SDS011;17730;53.552;9.940;2022-12-18T05:04:53;25.52;;;10.63;;
31073;SDS011;17730;53.552;9.940;2022-12-18T05:07:19;22.35;;;10.52;;
31073;SDS011;17730;53.552;9.940;2022-12-18T05:09:44;26.15;;;11.77;;
31073;SDS011;17730;53.552;9.940;2022-12-18T05:12:10;31.10;;;12.13;;
31073;SDS011;17730;53.552;9.940;2022-12-18T05:14:36;22.73;;;11.93;;
31073;SDS011;17730;53.552;9.940;2022-12-18T05:17:01;27.23;;;11.07;;
31073;SDS011;17730;53.552;9.940;2022-12-18T05:19:27;24.25;;;10.43;;
31073;SDS011;17730;53.552;9.940;2022-12-18T05:21:53;32.10;;;12.23;;
31073;SDS011;17730;53.552;9.940;2022-12-18T05:24:18;28.25;;;11.45;;
31073;SDS011;17730;53.552;9.940;2022-12-18T05:26:44;24.00;;;12.30;;
31073;SDS011;17730;53.552;9.940;2022-12-18T05:29:09;24.05;;;10.90;;
31073;SDS011;17730;53.552;9.940;2022-12-18T05:31:37;25.20;;;11.23;;
31073;SDS011;17730;53.552;9.940;2022-12-18T05:34:03;25.90;;;11.50;;
31073;SDS011;17730;53.552;9.940;2022-12-18T05:36:29;25.65;;;11.43;;
31073;SDS011;17730;53.552;9.940;2022-12-18T05:38:54;26.20;;;12.68;;
31073;SDS011;17730;53.552;9.940;2022-12-18T05:41:20;29.20;;;12.10;;
31073;SDS011;17730;53.552;9.940;2022-12-18T05:43:46;31.05;;;13.20;;
31073;SDS011;17730;53.552;9.940;2022-12-18T05:46:12;27.40;;;12.20;;
31073;SDS011;17730;53.552;9.940;2022-12-18T05:48:40;24.75;;;12.48;;
31073;SDS011;17730;53.552;9.940;2022-12-18T05:51:07;30.48;;;12.23;;
31073;SDS011;17730;53.552;9.940;2022-12-18T05:53:35;23.38;;;11.60;;
31073;SDS011;17730;53.552;9.940;2022-12-18T05:56:03;26.13;;;11.10;;
31073;SDS011;17730;53.552;9.940;2022-12-18T05:58:30;25.63;;;12.15;;
31073;SDS011;17730;53.552;9.940;2022-12-18T06:00:56;30.70;;;12.05;;
31073;SDS011;17730;53.552;9.940;2022-12-18T06:03:23;30.48;;;12.32;;
31073;SDS011;17730;53.552;9.940;2022-12-18T06:05:49;33.28;;;12.68;;
31073;SDS011;17730;53.552;9.940;2022-12-18T06:08:14;29.65;;;12.82;;
31073;SDS011;17730;53.552;9.940;2022-12-18T06:10:40;28.42;;;13.48;;
31073;SDS011;17730;53.552;9.940;2022-12-18T06:13:06;28.67;;;11.32;;
31073;SDS011;17730;53.552;9.940;2022-12-18T06:15:32;22.65;;;11.13;;
31073;SDS011;17730;53.552;9.940;2022-12-18T06:18:01;25.08;;;11.02;;
31073;SDS011;17730;53.552;9.940;2022-12-18T06:20:26;25.55;;;11.05;;
31073;SDS011;17730;53.552;9.940;2022-12-18T06:22:52;25.23;;;11.43;;
31073;SDS011;17730;53.552;9.940;2022-12-18T06:25:18;24.48;;;11.82;;
31073;SDS011;17730;53.552;9.940;2022-12-18T06:27:43;25.08;;;12.65;;
31073;SDS011;17730;53.552;9.940;2022-12-18T06:30:09;24.90;;;10.85;;
31073;SDS011;17730;53.552;9.940;2022-12-18T06:32:35;31.25;;;13.75;;
31073;SDS011;17730;53.552;9.940;2022-12-18T06:35:01;29.25;;;13.15;;
31073;SDS011;17730;53.552;9.940;2022-12-18T06:37:26;31.75;;;12.95;;
31073;SDS011;17730;53.552;9.940;2022-12-18T06:39:52;29.30;;;12.10;;
31073;SDS011;17730;53.552;9.940;2022-12-18T06:42:18;30.33;;;11.57;;
31073;SDS011;17730;53.552;9.940;2022-12-18T06:44:48;23.35;;;11.43;;
31073;SDS011;17730;53.552;9.940;2022-12-18T06:47:13;27.10;;;10.55;;
31073;SDS011;17730;53.552;9.940;2022-12-18T06:49:39;26.10;;;10.50;;
31073;SDS011;17730;53.552;9.940;2022-12-18T06:52:05;24.65;;;11.45;;
31073;SDS011;17730;53.552;9.940;2022-12-18T06:54:30;27.77;;;11.02;;
31073;SDS011;17730;53.552;9.940;2022-12-18T06:56:56;25.30;;;11.25;;
31073;SDS011;17730;53.552;9.940;2022-12-18T06:59:21;27.38;;;12.73;;
31073;SDS011;17730;53.552;9.940;2022-12-18T07:01:47;28.55;;;11.43;;
31073;SDS011;17730;53.552;9.940;2022-12-18T07:04:13;28.92;;;11.60;;
31073;SDS011;17730;53.552;9.940;2022-12-18T07:06:38;27.98;;;11.77;;
31073;SDS011;17730;53.552;9.940;2022-12-18T07:09:04;26.88;;;11.13;;
31073;SDS011;17730;53.552;9.940;2022-12-18T07:11:31;24.92;;;10.93;;
31073;SDS011;17730;53.552;9.940;2022-12-18T07:13:57;29.10;;;11.40;;
31073;SDS011;17730;53.552;9.940;2022-12-18T07:16:23;24.13;;;11.07;;
31073;SDS011;17730;53.552;9.940;2022-12-18T07:18:48;29.58;;;11.18;;
31073;SDS011;17730;53.552;9.940;2022-12-18T07:21:16;25.92;;;10.02;;
31073;SDS011;17730;53.552;9.940;2022-12-18T07:23:43;28.55;;;11.00;;
31073;SDS011;17730;53.552;9.940;2022-12-18T07:26:13;25.70;;;11.50;;
31073;SDS011;17730;53.552;9.940;2022-12-18T07:28:40;33.97;;;12.27;;
31073;SDS011;17730;53.552;9.940;2022-12-18T07:31:08;27.92;;;11.45;;
31073;SDS011;17730;53.552;9.940;2022-12-18T07:33:36;26.02;;;11.18;;
31073;SDS011;17730;53.552;9.940;2022-12-18T07:36:03;29.00;;;11.25;;
31073;SDS011;17730;53.552;9.940;2022-12-18T07:38:30;28.20;;;11.60;;
31073;SDS011;17730;53.552;9.940;2022-12-18T07:41:03;26.98;;;10.98;;
31073;SDS011;17730;53.552;9.940;2022-12-18T07:43:31;25.52;;;10.77;;
31073;SDS011;17730;53.552;9.940;2022-12-18T07:45:56;26.73;;;11.38;;
31073;SDS011;17730;53.552;9.940;2022-12-18T07:48:22;22.52;;;11.40;;
31073;SDS011;17730;53.552;9.940;2022-12-18T07:50:48;22.23;;;10.50;;
31073;SDS011;17730;53.552;9.940;2022-12-18T07:53:13;27.38;;;11.27;;
31073;SDS011;17730;53.552;9.940;2022-12-18T07:55:40;21.38;;;10.30;;
31073;SDS011;17730;53.552;9.940;2022-12-18T07:58:08;23.13;;;10.25;;
31073;SDS011;17730;53.552;9.940;2022-12-18T08:00:34;24.58;;;11.00;;
31073;SDS011;17730;53.552;9.940;2022-12-18T08:03:00;20.70;;;10.48;;
31073;SDS011;17730;53.552;9.940;2022-12-18T08:05:26;23.30;;;11.02;;
31073;SDS011;17730;53.552;9.940;2022-12-18T08:07:52;25.92;;;11.50;;
31073;SDS011;17730;53.552;9.940;2022-12-18T08:10:18;24.17;;;11.15;;
31073;SDS011;17730;53.552;9.940;2022-12-18T08:12:44;26.63;;;10.60;;
31073;SDS011;17730;53.552;9.940;2022-12-18T08:15:10;30.42;;;11.32;;
31073;SDS011;17730;53.552;9.940;2022-12-18T08:17:36;32.63;;;11.80;;
31073;SDS011;17730;53.552;9.940;2022-12-18T08:20:01;25.98;;;12.13;;
31073;SDS011;17730;53.552;9.940;2022-12-18T08:22:27;20.38;;;11.15;;
31073;SDS011;17730;53.552;9.940;2022-12-18T08:24:53;24.92;;;11.02;;
31073;SDS011;17730;53.552;9.940;2022-12-18T08:27:18;22.98;;;11.02;;
31073;SDS011;17730;53.552;9.940;2022-12-18T08:29:44;24.50;;;12.07;;
31073;SDS011;17730;53.552;9.940;2022-12-18T08:32:09;24.55;;;11.57;;
31073;SDS011;17730;53.552;9.940;2022-12-18T08:34:37;28.98;;;11.30;;
31073;SDS011;17730;53.552;9.940;2022-12-18T08:37:03;26.95;;;10.57;;
31073;SDS011;17730;53.552;9.940;2022-12-18T08:39:29;24.17;;;10.68;;
31073;SDS011;17730;53.552;9.940;2022-12-18T08:41:54;25.05;;;11.73;;
31073;SDS011;17730;53.552;9.940;2022-12-18T08:44:38;23.05;;;10.85;;
31073;SDS011;17730;53.552;9.940;2022-12-18T08:47:05;27.90;;;10.50;;
31073;SDS011;17730;53.552;9.940;2022-12-18T08:49:31;21.95;;;9.88;;
31073;SDS011;17730;53.552;9.940;2022-12-18T08:51:57;22.00;;;10.05;;
31073;SDS011;17730;53.552;9.940;2022-12-18T08:54:23;21.58;;;9.50;;
31073;SDS011;17730;53.552;9.940;2022-12-18T08:56:49;24.85;;;10.05;;
31073;SDS011;17730;53.552;9.940;2022-12-18T08:59:19;22.52;;;10.35;;
31073;SDS011;17730;53.552;9.940;2022-12-18T09:01:45;21.58;;;10.35;;
31073;SDS011;17730;53.552;9.940;2022-12-18T09:04:11;22.02;;;10.07;;
31073;SDS011;17730;53.552;9.940;2022-12-18T09:06:38;20.40;;;9.25;;
31073;SDS011;17730;53.552;9.940;2022-12-18T09:09:04;26.30;;;10.80;;
31073;SDS011;17730;53.552;9.940;2022-12-18T09:11:31;24.58;;;9.65;;
31073;SDS011;17730;53.552;9.940;2022-12-18T09:13:58;22.27;;;9.65;;
31073;SDS011;17730;53.552;9.940;2022-12-18T09:16:26;25.02;;;10.63;;
31073;SDS011;17730;53.552;9.940;2022-12-18T09:18:53;23.40;;;10.85;;
31073;SDS011;17730;53.552;9.940;2022-12-18T09:21:24;17.98;;;9.02;;
31073;SDS011;17730;53.552;9.940;2022-12-18T09:23:51;23.63;;;10.15;;
31073;SDS011;17730;53.552;9.940;2022-12-18T09:26:18;20.48;;;9.75;;
31073;SDS011;17730;53.552;9.940;2022-12-18T09:28:44;23.63;;;9.95;;
31073;SDS011;17730;53.552;9.940;2022-12-18T09:31:10;22.83;;;10.07;;
31073;SDS011;17730;53.552;9.940;2022-12-18T09:33:38;20.75;;;10.73;;
31073;SDS011;17730;53.552;9.940;2022-12-18T09:36:05;21.85;;;9.75;;
31073;SDS011;17730;53.552;9.940;2022-12-18T09:38:32;21.33;;;10.70;;
31073;SDS011;17730;53.552;9.940;2022-12-18T09:44:03;23.05;;;10.23;;
31073;SDS011;17730;53.552;9.940;2022-12-18T09:46:44;20.02;;;9.60;;
31073;SDS011;17730;53.552;9.940;2022-12-18T09:49:20;24.88;;;9.93;;
31073;SDS011;17730;53.552;9.940;2022-12-18T09:51:50;19.60;;;10.10;;
31073;SDS011;17730;53.552;9.940;2022-12-18T09:54:26;20.73;;;9.40;;
31073;SDS011;17730;53.552;9.940;2022-12-18T09:56:57;18.85;;;8.98;;
31073;SDS011;17730;53.552;9.940;2022-12-18T10:01:51;22.20;;;10.55;;
31073;SDS011;17730;53.552;9.940;2022-12-18T10:04:17;26.38;;;11.00;;
31073;SDS011;17730;53.552;9.940;2022-12-18T10:11:48;20.65;;;10.07;;
31073;SDS011;17730;53.552;9.940;2022-12-18T10:20:00;27.83;;;10.70;;
31073;SDS011;17730;53.552;9.940;2022-12-18T10:25:05;21.20;;;10.38;;
31073;SDS011;17730;53.552;9.940;2022-12-18T10:28:07;20.35;;;10.30;;
31073;SDS011;17730;53.552;9.940;2022-12-18T10:30:38;23.63;;;10.43;;
31073;SDS011;17730;53.552;9.940;2022-12-18T10:33:05;19.98;;;9.05;;
31073;SDS011;17730;53.552;9.940;2022-12-18T10:35:30;22.63;;;10.57;;
31073;SDS011;17730;53.552;9.940;2022-12-18T10:40:26;18.60;;;10.05;;
31073;SDS011;17730;53.552;9.940;2022-12-18T10:43:13;22.02;;;10.50;;
31073;SDS011;17730;53.552;9.940;2022-12-18T10:45:39;22.20;;;10.65;;
31073;SDS011;17730;53.552;9.940;2022-12-18T10:48:16;26.63;;;11.57;;
31073;SDS011;17730;53.552;9.940;2022-12-18T10:50:46;25.05;;;11.15;;
31073;SDS011;17730;53.552;9.940;2022-12-18T10:53:17;21.25;;;10.68;;
31073;SDS011;17730;53.552;9.940;2022-12-18T10:55:46;20.65;;;10.48;;
31073;SDS011;17730;53.552;9.940;2022-12-18T10:58:13;27.85;;;11.48;;
31073;SDS011;17730;53.552;9.940;2022-12-18T11:00:44;21.00;;;10.57;;
31073;SDS011;17730;53.552;9.940;2022-12-18T11:03:29;20.48;;;10.75;;
31073;SDS011;17730;53.552;9.940;2022-12-18T11:06:01;20.95;;;11.40;;
31073;SDS011;17730;53.552;9.940;2022-12-18T11:08:32;23.73;;;11.82;;
31073;SDS011;17730;53.552;9.940;2022-12-18T11:10:58;27.35;;;10.93;;
31073;SDS011;17730;53.552;9.940;2022-12-18T11:13:24;24.05;;;11.43;;
31073;SDS011;17730;53.552;9.940;2022-12-18T11:15:52;22.92;;;11.20;;
31073;SDS011;17730;53.552;9.940;2022-12-18T11:18:32;24.23;;;12.00;;
31073;SDS011;17730;53.552;9.940;2022-12-18T11:21:00;24.70;;;11.68;;
31073;SDS011;17730;53.552;9.940;2022-12-18T11:23:34;23.10;;;11.20;;
31073;SDS011;17730;53.552;9.940;2022-12-18T11:26:01;24.95;;;11.77;;
31073;SDS011;17730;53.552;9.940;2022-12-18T11:33:54;25.98;;;11.35;;
31073;SDS011;17730;53.552;9.940;2022-12-18T11:36:21;22.83;;;11.00;;
31073;SDS011;17730;53.552;9.940;2022-12-18T11:38:48;21.70;;;11.75;;
31073;SDS011;17730;53.552;9.940;2022-12-18T11:44:35;25.55;;;11.77;;
31073;SDS011;17730;53.552;9.940;2022-12-18T11:47:13;24.95;;;12.23;;
31073;SDS011;17730;53.552;9.940;2022-12-18T11:49:44;24.63;;;11.65;;
31073;SDS011;17730;53.552;9.940;2022-12-18T11:54:52;26.48;;;12.25;;
31073;SDS011;17730;53.552;9.940;2022-12-18T11:57:54;27.60;;;12.95;;
31073;SDS011;17730;53.552;9.940;2022-12-18T12:00:21;24.42;;;11.98;;
31073;SDS011;17730;53.552;9.940;2022-12-18T12:05:31;29.55;;;13.30;;
31073;SDS011;17730;53.552;9.940;2022-12-18T12:13:44;25.90;;;13.00;;
31073;SDS011;17730;53.552;9.940;2022-12-18T12:22:12;26.42;;;12.05;;
31073;SDS011;17730;53.552;9.940;2022-12-18T12:30:20;27.83;;;13.70;;
31073;SDS011;17730;53.552;9.940;2022-12-18T12:33:14;27.08;;;11.98;;
31073;SDS011;17730;53.552;9.940;2022-12-18T12:38:40;29.15;;;13.45;;
31073;SDS011;17730;53.552;9.940;2022-12-18T12:41:09;27.40;;;12.40;;
31073;SDS011;17730;53.552;9.940;2022-12-18T12:44:00;30.00;;;12.25;;
31073;SDS011;17730;53.552;9.940;2022-12-18T12:46:29;29.33;;;12.43;;
31073;SDS011;17730;53.552;9.940;2022-12-18T12:49:00;25.65;;;11.77;;
31073;SDS011;17730;53.552;9.940;2022-12-18T12:51:30;24.75;;;12.18;;
31073;SDS011;17730;53.552;9.940;2022-12-18T12:53:59;24.95;;;12.10;;
31073;SDS011;17730;53.552;9.940;2022-12-18T12:56:52;27.07;;;12.47;;
31073;SDS011;17730;53.552;9.940;2022-12-18T13:18:06;28.23;;;12.25;;
31073;SDS011;17730;53.552;9.940;2022-12-18T13:23:32;29.48;;;12.63;;
31073;SDS011;17730;53.552;9.940;2022-12-18T13:31:57;29.27;;;13.75;;
31073;SDS011;17730;53.552;9.940;2022-12-18T13:34:14;33.78;;;14.23;;
31073;SDS011;17730;53.552;9.940;2022-12-18T13:36:45;40.80;;;15.27;;
31073;SDS011;17730;53.552;9.940;2022-12-18T13:41:46;39.67;;;15.85;;
31073;SDS011;17730;53.552;9.940;2022-12-18T13:44:32;29.40;;;13.95;;
31073;SDS011;17730;53.552;9.940;2022-12-18T13:47:01;36.40;;;14.48;;
31073;SDS011;17730;53.552;9.940;2022-12-18T13:49:41;40.08;;;16.85;;
31073;SDS011;17730;53.552;9.940;2022-12-18T13:52:17;38.47;;;16.42;;
31073;SDS011;17730;53.552;9.940;2022-12-18T13:54:51;45.90;;;17.00;;
31073;SDS011;17730;53.552;9.940;2022-12-18T13:57:28;41.03;;;16.08;;
31073;SDS011;17730;53.552;9.940;2022-12-18T13:59:59;38.97;;;15.70;;
31073;SDS011;17730;53.552;9.940;2022-12-18T14:02:46;39.95;;;16.65;;
31073;SDS011;17730;53.552;9.940;2022-12-18T14:05:24;43.80;;;16.77;;
31073;SDS011;17730;53.552;9.940;2022-12-18T14:07:54;46.47;;;16.60;;
31073;SDS011;17730;53.552;9.940;2022-12-18T14:10:20;44.15;;;16.58;;
31073;SDS011;17730;53.552;9.940;2022-12-18T14:12:47;46.10;;;18.58;;
31073;SDS011;17730;53.552;9.940;2022-12-18T14:20:22;37.95;;;16.30;;
31073;SDS011;17730;53.552;9.940;2022-12-18T14:22:49;44.15;;;15.52;;
31073;SDS011;17730;53.552;9.940;2022-12-18T14:25:17;45.35;;;17.15;;
31073;SDS011;17730;53.552;9.940;2022-12-18T14:27:46;45.17;;;15.52;;
31073;SDS011;17730;53.552;9.940;2022-12-18T14:33:00;42.15;;;17.55;;
31073;SDS011;17730;53.552;9.940;2022-12-18T14:35:26;42.17;;;17.77;;
31073;SDS011;17730;53.552;9.940;2022-12-18T14:37:52;44.88;;;17.80;;
31073;SDS011;17730;53.552;9.940;2022-12-18T14:40:17;44.08;;;16.10;;
31073;SDS011;17730;53.552;9.940;2022-12-18T14:42:43;39.35;;;15.73;;
31073;SDS011;17730;53.552;9.940;2022-12-18T14:48:00;45.78;;;17.70;;
31073;SDS011;17730;53.552;9.940;2022-12-18T14:50:30;47.08;;;16.42;;
31073;SDS011;17730;53.552;9.940;2022-12-18T14:52:56;49.97;;;17.67;;
31073;SDS011;17730;53.552;9.940;2022-12-18T14:55:22;42.95;;;16.88;;
31073;SDS011;17730;53.552;9.940;2022-12-18T14:57:51;55.72;;;18.77;;
31073;SDS011;17730;53.552;9.940;2022-12-18T15:00:20;52.35;;;19.33;;
31073;SDS011;17730;53.552;9.940;2022-12-18T15:02:55;45.25;;;18.10;;
31073;SDS011;17730;53.552;9.940;2022-12-18T15:05:26;55.08;;;20.05;;
31073;SDS011;17730;53.552;9.940;2022-12-18T15:07:54;51.20;;;18.70;;
31073;SDS011;17730;53.552;9.940;2022-12-18T15:20:25;58.42;;;21.85;;
31073;SDS011;17730;53.552;9.940;2022-12-18T15:22:51;53.00;;;18.40;;
31073;SDS011;17730;53.552;9.940;2022-12-18T15:25:34;58.40;;;20.67;;
31073;SDS011;17730;53.552;9.940;2022-12-18T15:28:02;51.53;;;19.55;;
31073;SDS011;17730;53.552;9.940;2022-12-18T15:30:29;64.28;;;21.20;;
31073;SDS011;17730;53.552;9.940;2022-12-18T15:35:55;50.22;;;19.00;;
31073;SDS011;17730;53.552;9.940;2022-12-18T15:38:22;55.35;;;19.63;;
31073;SDS011;17730;53.552;9.940;2022-12-18T15:40:48;60.88;;;19.60;;
31073;SDS011;17730;53.552;9.940;2022-12-18T15:43:14;54.45;;;19.63;;
31073;SDS011;17730;53.552;9.940;2022-12-18T15:45:58;55.95;;;19.35;;
31073;SDS011;17730;53.552;9.940;2022-12-18T15:48:24;52.55;;;19.30;;
31073;SDS011;17730;53.552;9.940;2022-12-18T15:50:50;54.33;;;19.35;;
31073;SDS011;17730;53.552;9.940;2022-12-18T15:53:17;55.08;;;20.27;;
31073;SDS011;17730;53.552;9.940;2022-12-18T15:55:43;56.33;;;20.33;;
31073;SDS011;17730;53.552;9.940;2022-12-18T15:58:27;54.88;;;20.15;;
31073;SDS011;17730;53.552;9.940;2022-12-18T16:00:53;67.68;;;20.50;;
31073;SDS011;17730;53.552;9.940;2022-12-18T16:03:20;54.85;;;20.02;;
31073;SDS011;17730;53.552;9.940;2022-12-18T16:05:46;58.00;;;20.27;;
31073;SDS011;17730;53.552;9.940;2022-12-18T16:08:12;57.42;;;22.20;;
31073;SDS011;17730;53.552;9.940;2022-12-18T16:10:37;56.80;;;20.63;;
31073;SDS011;17730;53.552;9.940;2022-12-18T16:13:03;54.28;;;18.67;;
31073;SDS011;17730;53.552;9.940;2022-12-18T16:15:29;53.25;;;18.80;;
31073;SDS011;17730;53.552;9.940;2022-12-18T16:17:54;60.65;;;20.50;;
31073;SDS011;17730;53.552;9.940;2022-12-18T16:20:21;58.00;;;19.15;;
31073;SDS011;17730;53.552;9.940;2022-12-18T16:22:48;56.92;;;19.80;;
31073;SDS011;17730;53.552;9.940;2022-12-18T16:25:19;48.25;;;18.17;;
31073;SDS011;17730;53.552;9.940;2022-12-18T16:27:46;57.15;;;19.77;;
31073;SDS011;17730;53.552;9.940;2022-12-18T16:30:15;55.38;;;20.38;;
31073;SDS011;17730;53.552;9.940;2022-12-18T16:32:43;45.83;;;18.45;;
31073;SDS011;17730;53.552;9.940;2022-12-18T16:35:13;52.55;;;19.10;;
31073;SDS011;17730;53.552;9.940;2022-12-18T16:37:40;53.50;;;18.20;;
31073;SDS011;17730;53.552;9.940;2022-12-18T16:40:07;53.10;;;17.20;;
31073;SDS011;17730;53.552;9.940;2022-12-18T16:42:34;55.25;;;19.13;;
31073;SDS011;17730;53.552;9.940;2022-12-18T16:45:01;46.88;;;17.85;;
31073;SDS011;17730;53.552;9.940;2022-12-18T16:47:28;51.97;;;18.98;;
31073;SDS011;17730;53.552;9.940;2022-12-18T16:49:53;51.15;;;19.23;;
31073;SDS011;17730;53.552;9.940;2022-12-18T16:52:19;56.47;;;18.95;;
31073;SDS011;17730;53.552;9.940;2022-12-18T16:54:46;46.58;;;17.50;;
31073;SDS011;17730;53.552;9.940;2022-12-18T16:57:13;57.97;;;19.25;;